sensor_id;sensor_type;location;lat;lon;timestamp;P1;durP1;ratioP1;P2;durP2;ratioP2
34035;SDS011;63481;52.588;22.472;2023-03-21T00:01:06;52.10;;;41.70;;
34035;SDS011;63481;52.588;22.472;2023-03-21T00:01:59;53.70;;;44.00;;
34035;SDS011;63481;52.588;22.472;2023-03-21T00:02:52;53.20;;;42.30;;
34035;SDS011;63481;52.588;22.472;2023-03-21T00:03:46;60.60;;;45.10;;
34035;SDS011;63481;52.588;22.472;2023-03-21T00:04:40;51.00;;;42.80;;
34035;SDS011;63481;52.588;22.472;2023-03-21T00:05:34;56.30;;;43.30;;
34035;SDS011;63481;52.588;22.472;2023-03-21T00:06:34;54.70;;;42.40;;
34035;SDS011;63481;52.588;22.472;2023-03-21T00:07:28;54.80;;;42.80;;
34035;SDS011;63481;52.588;22.472;2023-03-21T00:08:21;53.80;;;41.70;;
34035;SDS011;63481;52.588;22.472;2023-03-21T00:09:15;55.10;;;42.90;;
34035;SDS011;63481;52.588;22.472;2023-03-21T00:10:08;54.50;;;44.50;;
34035;SDS011;63481;52.588;22.472;2023-03-21T00:11:03;52.70;;;44.20;;
34035;SDS011;63481;52.588;22.472;2023-03-21T00:11:58;56.00;;;43.00;;
34035;SDS011;63481;52.588;22.472;2023-03-21T00:12:52;52.90;;;42.70;;
34035;SDS011;63481;52.588;22.472;2023-03-21T00:13:49;49.10;;;40.10;;
34035;SDS011;63481;52.588;22.472;2023-03-21T00:14:42;50.50;;;40.90;;
34035;SDS011;63481;52.588;22.472;2023-03-21T00:15:35;53.00;;;40.90;;
34035;SDS011;63481;52.588;22.472;2023-03-21T00:16:41;51.70;;;41.10;;
34035;SDS011;63481;52.588;22.472;2023-03-21T00:17:37;51.50;;;40.80;;
34035;SDS011;63481;52.588;22.472;2023-03-21T00:18:30;50.40;;;41.30;;
34035;SDS011;63481;52.588;22.472;2023-03-21T00:19:23;48.70;;;40.10;;
34035;SDS011;63481;52.588;22.472;2023-03-21T00:20:17;49.20;;;40.40;;
34035;SDS011;63481;52.588;22.472;2023-03-21T00:21:10;54.60;;;41.60;;
34035;SDS011;63481;52.588;22.472;2023-03-21T00:22:06;55.90;;;41.80;;
34035;SDS011;63481;52.588;22.472;2023-03-21T00:22:59;51.00;;;41.50;;
34035;SDS011;63481;52.588;22.472;2023-03-21T00:23:53;50.20;;;40.80;;
34035;SDS011;63481;52.588;22.472;2023-03-21T00:24:46;47.90;;;40.50;;
34035;SDS011;63481;52.588;22.472;2023-03-21T00:25:39;51.90;;;41.20;;
34035;SDS011;63481;52.588;22.472;2023-03-21T00:26:32;51.70;;;40.90;;
34035;SDS011;63481;52.588;22.472;2023-03-21T00:27:24;50.20;;;39.40;;
34035;SDS011;63481;52.588;22.472;2023-03-21T00:28:20;48.50;;;39.80;;
34035;SDS011;63481;52.588;22.472;2023-03-21T00:29:14;48.20;;;38.70;;
34035;SDS011;63481;52.588;22.472;2023-03-21T00:30:07;49.90;;;40.10;;
34035;SDS011;63481;52.588;22.472;2023-03-21T00:31:00;49.20;;;38.50;;
34035;SDS011;63481;52.588;22.472;2023-03-21T00:31:52;49.30;;;40.20;;
34035;SDS011;63481;52.588;22.472;2023-03-21T00:32:45;48.50;;;38.00;;
34035;SDS011;63481;52.588;22.472;2023-03-21T00:33:39;50.20;;;39.40;;
34035;SDS011;63481;52.588;22.472;2023-03-21T00:34:32;46.00;;;37.40;;
34035;SDS011;63481;52.588;22.472;2023-03-21T00:35:25;47.80;;;37.90;;
34035;SDS011;63481;52.588;22.472;2023-03-21T00:36:18;48.20;;;37.90;;
34035;SDS011;63481;52.588;22.472;2023-03-21T00:37:10;46.90;;;37.80;;
34035;SDS011;63481;52.588;22.472;2023-03-21T00:38:07;50.50;;;39.10;;
34035;SDS011;63481;52.588;22.472;2023-03-21T00:39:01;45.80;;;38.00;;
34035;SDS011;63481;52.588;22.472;2023-03-21T00:39:53;49.60;;;49.80;;
34035;SDS011;63481;52.588;22.472;2023-03-21T00:40:47;49.70;;;38.60;;
34035;SDS011;63481;52.588;22.472;2023-03-21T00:41:40;48.50;;;38.40;;
34035;SDS011;63481;52.588;22.472;2023-03-21T00:42:32;47.60;;;39.00;;
34035;SDS011;63481;52.588;22.472;2023-03-21T00:43:25;52.30;;;38.70;;
34035;SDS011;63481;52.588;22.472;2023-03-21T00:44:22;50.60;;;40.00;;
34035;SDS011;63481;52.588;22.472;2023-03-21T00:45:16;43.90;;;37.80;;
34035;SDS011;63481;52.588;22.472;2023-03-21T00:46:10;49.20;;;38.20;;
34035;SDS011;63481;52.588;22.472;2023-03-21T00:47:05;47.30;;;37.70;;
34035;SDS011;63481;52.588;22.472;2023-03-21T00:47:59;46.00;;;37.10;;
34035;SDS011;63481;52.588;22.472;2023-03-21T00:48:55;50.00;;;38.80;;
34035;SDS011;63481;52.588;22.472;2023-03-21T00:49:48;51.40;;;40.30;;
34035;SDS011;63481;52.588;22.472;2023-03-21T00:50:42;50.20;;;39.60;;
34035;SDS011;63481;52.588;22.472;2023-03-21T00:51:37;50.00;;;39.50;;
34035;SDS011;63481;52.588;22.472;2023-03-21T00:52:31;48.50;;;38.70;;
34035;SDS011;63481;52.588;22.472;2023-03-21T00:53:25;50.40;;;39.60;;
34035;SDS011;63481;52.588;22.472;2023-03-21T00:54:19;47.20;;;40.00;;
34035;SDS011;63481;52.588;22.472;2023-03-21T00:55:14;45.50;;;37.30;;
34035;SDS011;63481;52.588;22.472;2023-03-21T00:56:08;48.30;;;37.70;;
34035;SDS011;63481;52.588;22.472;2023-03-21T00:57:02;45.60;;;37.70;;
34035;SDS011;63481;52.588;22.472;2023-03-21T00:57:56;45.80;;;37.20;;
34035;SDS011;63481;52.588;22.472;2023-03-21T00:58:50;52.10;;;40.70;;
34035;SDS011;63481;52.588;22.472;2023-03-21T00:59:42;49.20;;;37.60;;
34035;SDS011;63481;52.588;22.472;2023-03-21T01:00:35;47.60;;;38.70;;
34035;SDS011;63481;52.588;22.472;2023-03-21T01:01:29;44.40;;;35.50;;
34035;SDS011;63481;52.588;22.472;2023-03-21T01:02:25;50.20;;;39.70;;
34035;SDS011;63481;52.588;22.472;2023-03-21T01:03:18;47.00;;;38.00;;
34035;SDS011;63481;52.588;22.472;2023-03-21T01:04:12;47.50;;;37.00;;
34035;SDS011;63481;52.588;22.472;2023-03-21T01:05:08;46.50;;;37.30;;
34035;SDS011;63481;52.588;22.472;2023-03-21T01:06:02;51.60;;;39.20;;
34035;SDS011;63481;52.588;22.472;2023-03-21T01:06:59;45.00;;;35.40;;
34035;SDS011;63481;52.588;22.472;2023-03-21T01:07:52;45.40;;;36.00;;
34035;SDS011;63481;52.588;22.472;2023-03-21T01:08:46;49.00;;;37.30;;
34035;SDS011;63481;52.588;22.472;2023-03-21T01:09:41;49.40;;;38.30;;
34035;SDS011;63481;52.588;22.472;2023-03-21T01:10:36;46.00;;;38.30;;
34035;SDS011;63481;52.588;22.472;2023-03-21T01:11:37;46.80;;;36.70;;
34035;SDS011;63481;52.588;22.472;2023-03-21T01:12:29;45.20;;;36.20;;
34035;SDS011;63481;52.588;22.472;2023-03-21T01:13:23;47.10;;;36.80;;
34035;SDS011;63481;52.588;22.472;2023-03-21T01:14:17;45.20;;;36.80;;
34035;SDS011;63481;52.588;22.472;2023-03-21T01:15:11;44.90;;;37.20;;
34035;SDS011;63481;52.588;22.472;2023-03-21T01:16:06;48.50;;;37.80;;
34035;SDS011;63481;52.588;22.472;2023-03-21T01:17:00;48.70;;;38.20;;
34035;SDS011;63481;52.588;22.472;2023-03-21T01:17:52;45.30;;;37.20;;
34035;SDS011;63481;52.588;22.472;2023-03-21T01:18:45;47.70;;;37.20;;
34035;SDS011;63481;52.588;22.472;2023-03-21T01:19:38;45.30;;;36.00;;
34035;SDS011;63481;52.588;22.472;2023-03-21T01:20:31;49.60;;;38.00;;
34035;SDS011;63481;52.588;22.472;2023-03-21T01:21:23;47.70;;;36.10;;
34035;SDS011;63481;52.588;22.472;2023-03-21T01:22:16;47.40;;;37.90;;
34035;SDS011;63481;52.588;22.472;2023-03-21T01:23:10;49.50;;;38.80;;
34035;SDS011;63481;52.588;22.472;2023-03-21T01:24:05;47.20;;;37.20;;
34035;SDS011;63481;52.588;22.472;2023-03-21T01:24:58;49.50;;;37.60;;
34035;SDS011;63481;52.588;22.472;2023-03-21T01:25:51;49.70;;;38.50;;
34035;SDS011;63481;52.588;22.472;2023-03-21T01:26:46;48.30;;;37.90;;
34035;SDS011;63481;52.588;22.472;2023-03-21T01:27:39;51.40;;;39.90;;
34035;SDS011;63481;52.588;22.472;2023-03-21T01:28:33;54.20;;;40.90;;
34035;SDS011;63481;52.588;22.472;2023-03-21T01:29:28;52.20;;;38.80;;
34035;SDS011;63481;52.588;22.472;2023-03-21T01:30:20;52.40;;;40.20;;
34035;SDS011;63481;52.588;22.472;2023-03-21T01:31:14;52.00;;;38.70;;
34035;SDS011;63481;52.588;22.472;2023-03-21T01:32:07;51.60;;;37.60;;
34035;SDS011;63481;52.588;22.472;2023-03-21T01:33:00;48.70;;;37.30;;
34035;SDS011;63481;52.588;22.472;2023-03-21T01:33:53;50.30;;;39.50;;
34035;SDS011;63481;52.588;22.472;2023-03-21T01:34:46;51.30;;;37.70;;
34035;SDS011;63481;52.588;22.472;2023-03-21T01:35:38;49.00;;;38.50;;
34035;SDS011;63481;52.588;22.472;2023-03-21T01:36:31;48.80;;;37.80;;
34035;SDS011;63481;52.588;22.472;2023-03-21T01:37:28;49.70;;;38.10;;
34035;SDS011;63481;52.588;22.472;2023-03-21T01:38:21;48.80;;;38.00;;
34035;SDS011;63481;52.588;22.472;2023-03-21T01:39:14;48.20;;;37.10;;
34035;SDS011;63481;52.588;22.472;2023-03-21T01:40:07;49.60;;;37.40;;
34035;SDS011;63481;52.588;22.472;2023-03-21T01:41:04;49.90;;;37.90;;
34035;SDS011;63481;52.588;22.472;2023-03-21T01:42:01;49.20;;;38.20;;
34035;SDS011;63481;52.588;22.472;2023-03-21T01:42:54;48.30;;;37.40;;
34035;SDS011;63481;52.588;22.472;2023-03-21T01:43:47;47.70;;;39.50;;
34035;SDS011;63481;52.588;22.472;2023-03-21T01:44:56;52.90;;;39.00;;
34035;SDS011;63481;52.588;22.472;2023-03-21T01:47:29;45.30;;;36.00;;
34035;SDS011;63481;52.588;22.472;2023-03-21T01:48:37;53.30;;;39.90;;
34035;SDS011;63481;52.588;22.472;2023-03-21T01:49:34;48.20;;;36.40;;
34035;SDS011;63481;52.588;22.472;2023-03-21T01:50:54;47.50;;;36.50;;
34035;SDS011;63481;52.588;22.472;2023-03-21T01:52:17;47.40;;;35.90;;
34035;SDS011;63481;52.588;22.472;2023-03-21T01:53:15;50.00;;;36.70;;
34035;SDS011;63481;52.588;22.472;2023-03-21T01:54:14;48.10;;;37.20;;
34035;SDS011;63481;52.588;22.472;2023-03-21T01:55:15;51.10;;;38.30;;
34035;SDS011;63481;52.588;22.472;2023-03-21T01:57:24;49.80;;;38.20;;
34035;SDS011;63481;52.588;22.472;2023-03-21T01:58:25;48.70;;;38.30;;
34035;SDS011;63481;52.588;22.472;2023-03-21T01:59:29;48.20;;;36.10;;
34035;SDS011;63481;52.588;22.472;2023-03-21T02:00:38;51.30;;;39.40;;
34035;SDS011;63481;52.588;22.472;2023-03-21T02:01:41;50.20;;;37.90;;
34035;SDS011;63481;52.588;22.472;2023-03-21T02:02:37;48.20;;;38.10;;
34035;SDS011;63481;52.588;22.472;2023-03-21T02:04:03;50.20;;;38.40;;
34035;SDS011;63481;52.588;22.472;2023-03-21T02:05:37;46.80;;;36.60;;
34035;SDS011;63481;52.588;22.472;2023-03-21T02:06:48;51.00;;;36.80;;
34035;SDS011;63481;52.588;22.472;2023-03-21T02:07:58;48.60;;;38.60;;
34035;SDS011;63481;52.588;22.472;2023-03-21T02:08:52;52.40;;;40.40;;
34035;SDS011;63481;52.588;22.472;2023-03-21T02:09:48;47.30;;;37.20;;
34035;SDS011;63481;52.588;22.472;2023-03-21T02:10:46;52.60;;;38.60;;
34035;SDS011;63481;52.588;22.472;2023-03-21T02:11:45;53.10;;;38.40;;
34035;SDS011;63481;52.588;22.472;2023-03-21T02:12:38;49.10;;;38.80;;
34035;SDS011;63481;52.588;22.472;2023-03-21T02:13:32;50.90;;;39.30;;
34035;SDS011;63481;52.588;22.472;2023-03-21T02:14:26;49.20;;;39.00;;
34035;SDS011;63481;52.588;22.472;2023-03-21T02:15:26;49.90;;;38.50;;
34035;SDS011;63481;52.588;22.472;2023-03-21T02:16:32;46.40;;;38.50;;
34035;SDS011;63481;52.588;22.472;2023-03-21T02:19:42;48.90;;;37.60;;
34035;SDS011;63481;52.588;22.472;2023-03-21T02:27:42;51.00;;;39.10;;
34035;SDS011;63481;52.588;22.472;2023-03-21T02:28:47;55.50;;;40.10;;
34035;SDS011;63481;52.588;22.472;2023-03-21T02:32:29;53.20;;;39.70;;
34035;SDS011;63481;52.588;22.472;2023-03-21T02:39:23;56.20;;;40.80;;
34035;SDS011;63481;52.588;22.472;2023-03-21T02:43:19;59.90;;;43.20;;
34035;SDS011;63481;52.588;22.472;2023-03-21T02:45:29;55.80;;;41.40;;
34035;SDS011;63481;52.588;22.472;2023-03-21T02:46:37;57.90;;;42.90;;
34035;SDS011;63481;52.588;22.472;2023-03-21T02:47:38;61.20;;;42.00;;
34035;SDS011;63481;52.588;22.472;2023-03-21T02:49:23;60.50;;;44.60;;
34035;SDS011;63481;52.588;22.472;2023-03-21T02:50:21;57.20;;;41.20;;
34035;SDS011;63481;52.588;22.472;2023-03-21T02:51:21;54.80;;;40.30;;
34035;SDS011;63481;52.588;22.472;2023-03-21T02:52:18;59.00;;;42.80;;
34035;SDS011;63481;52.588;22.472;2023-03-21T02:53:15;61.20;;;43.10;;
34035;SDS011;63481;52.588;22.472;2023-03-21T02:54:14;56.70;;;41.70;;
34035;SDS011;63481;52.588;22.472;2023-03-21T02:55:13;62.30;;;43.10;;
34035;SDS011;63481;52.588;22.472;2023-03-21T02:56:17;58.70;;;42.20;;
34035;SDS011;63481;52.588;22.472;2023-03-21T02:57:13;62.10;;;41.60;;
34035;SDS011;63481;52.588;22.472;2023-03-21T02:58:08;61.60;;;44.50;;
34035;SDS011;63481;52.588;22.472;2023-03-21T02:59:04;59.00;;;42.60;;
34035;SDS011;63481;52.588;22.472;2023-03-21T02:59:58;56.70;;;42.10;;
34035;SDS011;63481;52.588;22.472;2023-03-21T03:00:57;54.80;;;40.40;;
34035;SDS011;63481;52.588;22.472;2023-03-21T03:02:02;55.30;;;40.40;;
34035;SDS011;63481;52.588;22.472;2023-03-21T03:02:56;53.70;;;39.60;;
34035;SDS011;63481;52.588;22.472;2023-03-21T03:03:49;59.20;;;41.30;;
34035;SDS011;63481;52.588;22.472;2023-03-21T03:04:42;56.30;;;39.80;;
34035;SDS011;63481;52.588;22.472;2023-03-21T03:05:36;52.70;;;39.80;;
34035;SDS011;63481;52.588;22.472;2023-03-21T03:06:36;56.70;;;42.30;;
34035;SDS011;63481;52.588;22.472;2023-03-21T03:08:26;54.80;;;39.40;;
34035;SDS011;63481;52.588;22.472;2023-03-21T03:17:34;53.20;;;38.00;;
34035;SDS011;63481;52.588;22.472;2023-03-21T03:19:29;57.30;;;38.20;;
34035;SDS011;63481;52.588;22.472;2023-03-21T03:20:31;52.80;;;37.00;;
34035;SDS011;63481;52.588;22.472;2023-03-21T03:21:39;56.30;;;39.00;;
34035;SDS011;63481;52.588;22.472;2023-03-21T03:22:58;54.10;;;38.90;;
34035;SDS011;63481;52.588;22.472;2023-03-21T03:24:37;48.80;;;36.60;;
34035;SDS011;63481;52.588;22.472;2023-03-21T03:27:14;55.30;;;36.60;;
34035;SDS011;63481;52.588;22.472;2023-03-21T03:28:11;50.70;;;36.30;;
34035;SDS011;63481;52.588;22.472;2023-03-21T03:29:10;52.20;;;37.60;;
34035;SDS011;63481;52.588;22.472;2023-03-21T03:30:06;50.80;;;37.70;;
34035;SDS011;63481;52.588;22.472;2023-03-21T03:31:02;52.90;;;37.60;;
34035;SDS011;63481;52.588;22.472;2023-03-21T03:32:00;50.90;;;36.50;;
34035;SDS011;63481;52.588;22.472;2023-03-21T03:32:58;44.90;;;29.30;;
34035;SDS011;63481;52.588;22.472;2023-03-21T03:33:54;51.20;;;37.80;;
34035;SDS011;63481;52.588;22.472;2023-03-21T03:34:53;52.90;;;35.50;;
34035;SDS011;63481;52.588;22.472;2023-03-21T03:35:48;52.60;;;37.00;;
34035;SDS011;63481;52.588;22.472;2023-03-21T03:36:44;52.80;;;36.50;;
34035;SDS011;63481;52.588;22.472;2023-03-21T03:37:44;54.90;;;37.70;;
34035;SDS011;63481;52.588;22.472;2023-03-21T03:38:40;51.50;;;36.40;;
34035;SDS011;63481;52.588;22.472;2023-03-21T03:39:36;52.30;;;36.30;;
34035;SDS011;63481;52.588;22.472;2023-03-21T03:40:35;58.70;;;37.80;;
34035;SDS011;63481;52.588;22.472;2023-03-21T03:41:45;52.10;;;36.80;;
34035;SDS011;63481;52.588;22.472;2023-03-21T03:42:48;50.20;;;37.30;;
34035;SDS011;63481;52.588;22.472;2023-03-21T03:43:55;51.80;;;36.00;;
34035;SDS011;63481;52.588;22.472;2023-03-21T03:44:51;53.60;;;37.30;;
34035;SDS011;63481;52.588;22.472;2023-03-21T03:45:48;55.80;;;37.20;;
34035;SDS011;63481;52.588;22.472;2023-03-21T03:46:52;58.40;;;37.70;;
34035;SDS011;63481;52.588;22.472;2023-03-21T03:47:51;52.20;;;37.20;;
34035;SDS011;63481;52.588;22.472;2023-03-21T03:48:54;56.00;;;36.50;;
34035;SDS011;63481;52.588;22.472;2023-03-21T03:49:56;55.10;;;37.30;;
34035;SDS011;63481;52.588;22.472;2023-03-21T03:50:59;52.60;;;37.50;;
34035;SDS011;63481;52.588;22.472;2023-03-21T03:52:19;50.40;;;36.00;;
34035;SDS011;63481;52.588;22.472;2023-03-21T03:53:31;49.30;;;35.20;;
34035;SDS011;63481;52.588;22.472;2023-03-21T03:54:42;53.70;;;36.70;;
34035;SDS011;63481;52.588;22.472;2023-03-21T03:55:37;54.80;;;36.70;;
34035;SDS011;63481;52.588;22.472;2023-03-21T03:56:35;55.00;;;36.60;;
34035;SDS011;63481;52.588;22.472;2023-03-21T03:57:28;57.40;;;38.40;;
34035;SDS011;63481;52.588;22.472;2023-03-21T03:58:22;59.10;;;39.70;;
34035;SDS011;63481;52.588;22.472;2023-03-21T03:59:17;58.00;;;37.50;;
34035;SDS011;63481;52.588;22.472;2023-03-21T04:00:24;57.50;;;38.20;;
34035;SDS011;63481;52.588;22.472;2023-03-21T04:01:18;53.70;;;35.70;;
34035;SDS011;63481;52.588;22.472;2023-03-21T04:02:11;58.70;;;36.90;;
34035;SDS011;63481;52.588;22.472;2023-03-21T04:03:04;60.90;;;39.30;;
34035;SDS011;63481;52.588;22.472;2023-03-21T04:03:58;59.30;;;37.70;;
34035;SDS011;63481;52.588;22.472;2023-03-21T04:04:52;58.70;;;38.60;;
34035;SDS011;63481;52.588;22.472;2023-03-21T04:05:45;59.00;;;39.40;;
34035;SDS011;63481;52.588;22.472;2023-03-21T04:06:39;58.20;;;37.60;;
34035;SDS011;63481;52.588;22.472;2023-03-21T04:07:32;58.30;;;37.10;;
34035;SDS011;63481;52.588;22.472;2023-03-21T04:08:26;52.80;;;34.70;;
34035;SDS011;63481;52.588;22.472;2023-03-21T04:09:20;58.70;;;38.30;;
34035;SDS011;63481;52.588;22.472;2023-03-21T04:10:13;58.30;;;37.90;;
34035;SDS011;63481;52.588;22.472;2023-03-21T04:11:06;54.40;;;36.30;;
34035;SDS011;63481;52.588;22.472;2023-03-21T04:12:01;60.10;;;37.10;;
34035;SDS011;63481;52.588;22.472;2023-03-21T04:12:55;58.30;;;38.00;;
34035;SDS011;63481;52.588;22.472;2023-03-21T04:14:05;52.00;;;35.70;;
34035;SDS011;63481;52.588;22.472;2023-03-21T04:14:58;54.00;;;37.00;;
34035;SDS011;63481;52.588;22.472;2023-03-21T04:15:51;55.70;;;37.40;;
34035;SDS011;63481;52.588;22.472;2023-03-21T04:16:44;55.80;;;36.90;;
34035;SDS011;63481;52.588;22.472;2023-03-21T04:17:37;58.30;;;37.50;;
34035;SDS011;63481;52.588;22.472;2023-03-21T04:18:30;57.30;;;37.80;;
34035;SDS011;63481;52.588;22.472;2023-03-21T04:19:23;61.20;;;38.30;;
34035;SDS011;63481;52.588;22.472;2023-03-21T04:20:16;56.80;;;36.40;;
34035;SDS011;63481;52.588;22.472;2023-03-21T04:21:09;54.70;;;35.90;;
34035;SDS011;63481;52.588;22.472;2023-03-21T04:22:04;52.70;;;35.70;;
34035;SDS011;63481;52.588;22.472;2023-03-21T04:23:01;47.70;;;31.50;;
34035;SDS011;63481;52.588;22.472;2023-03-21T04:23:55;51.20;;;33.20;;
34035;SDS011;63481;52.588;22.472;2023-03-21T04:24:47;55.40;;;35.20;;
34035;SDS011;63481;52.588;22.472;2023-03-21T04:25:40;51.90;;;34.50;;
34035;SDS011;63481;52.588;22.472;2023-03-21T04:26:33;57.50;;;36.40;;
34035;SDS011;63481;52.588;22.472;2023-03-21T04:27:56;53.30;;;33.50;;
34035;SDS011;63481;52.588;22.472;2023-03-21T04:29:03;52.40;;;34.20;;
34035;SDS011;63481;52.588;22.472;2023-03-21T04:30:25;51.00;;;32.10;;
34035;SDS011;63481;52.588;22.472;2023-03-21T04:31:28;54.00;;;34.80;;
34035;SDS011;63481;52.588;22.472;2023-03-21T04:32:35;56.60;;;35.40;;
34035;SDS011;63481;52.588;22.472;2023-03-21T04:33:34;52.60;;;32.40;;
34035;SDS011;63481;52.588;22.472;2023-03-21T04:34:30;56.40;;;35.50;;
34035;SDS011;63481;52.588;22.472;2023-03-21T04:35:24;55.20;;;33.90;;
34035;SDS011;63481;52.588;22.472;2023-03-21T04:36:17;53.40;;;33.20;;
34035;SDS011;63481;52.588;22.472;2023-03-21T04:37:20;54.30;;;33.70;;
34035;SDS011;63481;52.588;22.472;2023-03-21T04:38:15;51.30;;;33.10;;
34035;SDS011;63481;52.588;22.472;2023-03-21T04:39:08;56.00;;;34.80;;
34035;SDS011;63481;52.588;22.472;2023-03-21T04:40:04;49.60;;;32.60;;
34035;SDS011;63481;52.588;22.472;2023-03-21T04:40:59;56.20;;;33.50;;
34035;SDS011;63481;52.588;22.472;2023-03-21T04:41:53;54.60;;;32.90;;
34035;SDS011;63481;52.588;22.472;2023-03-21T04:42:47;52.60;;;32.60;;
34035;SDS011;63481;52.588;22.472;2023-03-21T04:43:40;49.40;;;31.60;;
34035;SDS011;63481;52.588;22.472;2023-03-21T04:44:33;50.50;;;32.20;;
34035;SDS011;63481;52.588;22.472;2023-03-21T04:45:25;56.40;;;32.80;;
34035;SDS011;63481;52.588;22.472;2023-03-21T04:46:18;53.50;;;32.50;;
34035;SDS011;63481;52.588;22.472;2023-03-21T04:47:11;53.80;;;33.10;;
34035;SDS011;63481;52.588;22.472;2023-03-21T04:48:05;53.70;;;31.80;;
34035;SDS011;63481;52.588;22.472;2023-03-21T04:48:57;50.30;;;31.30;;
34035;SDS011;63481;52.588;22.472;2023-03-21T04:49:50;48.80;;;29.90;;
34035;SDS011;63481;52.588;22.472;2023-03-21T04:50:45;43.80;;;28.80;;
34035;SDS011;63481;52.588;22.472;2023-03-21T04:51:38;49.50;;;30.60;;
34035;SDS011;63481;52.588;22.472;2023-03-21T04:52:34;47.00;;;30.30;;
34035;SDS011;63481;52.588;22.472;2023-03-21T04:53:27;48.10;;;30.40;;
34035;SDS011;63481;52.588;22.472;2023-03-21T04:54:19;54.60;;;31.10;;
34035;SDS011;63481;52.588;22.472;2023-03-21T04:55:12;54.20;;;32.80;;
34035;SDS011;63481;52.588;22.472;2023-03-21T04:56:05;49.30;;;30.60;;
34035;SDS011;63481;52.588;22.472;2023-03-21T04:56:59;50.20;;;31.20;;
34035;SDS011;63481;52.588;22.472;2023-03-21T04:57:52;48.00;;;30.60;;
34035;SDS011;63481;52.588;22.472;2023-03-21T04:58:46;48.50;;;31.00;;
34035;SDS011;63481;52.588;22.472;2023-03-21T04:59:39;48.70;;;30.40;;
34035;SDS011;63481;52.588;22.472;2023-03-21T05:00:32;47.70;;;30.20;;
34035;SDS011;63481;52.588;22.472;2023-03-21T05:01:28;49.40;;;30.80;;
34035;SDS011;63481;52.588;22.472;2023-03-21T05:02:21;48.60;;;30.20;;
34035;SDS011;63481;52.588;22.472;2023-03-21T05:03:14;47.40;;;28.60;;
34035;SDS011;63481;52.588;22.472;2023-03-21T05:04:11;46.30;;;30.00;;
34035;SDS011;63481;52.588;22.472;2023-03-21T05:05:05;48.30;;;30.80;;
34035;SDS011;63481;52.588;22.472;2023-03-21T05:06:02;46.80;;;28.80;;
34035;SDS011;63481;52.588;22.472;2023-03-21T05:06:55;44.80;;;28.20;;
34035;SDS011;63481;52.588;22.472;2023-03-21T05:07:48;46.50;;;28.90;;
34035;SDS011;63481;52.588;22.472;2023-03-21T05:08:40;48.90;;;30.60;;
34035;SDS011;63481;52.588;22.472;2023-03-21T05:09:33;45.40;;;28.10;;
34035;SDS011;63481;52.588;22.472;2023-03-21T05:10:26;42.70;;;27.70;;
34035;SDS011;63481;52.588;22.472;2023-03-21T05:11:19;45.80;;;27.80;;
34035;SDS011;63481;52.588;22.472;2023-03-21T05:12:11;41.60;;;26.20;;
34035;SDS011;63481;52.588;22.472;2023-03-21T05:13:04;44.70;;;27.70;;
34035;SDS011;63481;52.588;22.472;2023-03-21T05:13:58;42.20;;;26.30;;
34035;SDS011;63481;52.588;22.472;2023-03-21T05:14:51;43.40;;;26.70;;
34035;SDS011;63481;52.588;22.472;2023-03-21T05:15:43;41.80;;;26.10;;
34035;SDS011;63481;52.588;22.472;2023-03-21T05:16:40;39.30;;;26.60;;
34035;SDS011;63481;52.588;22.472;2023-03-21T05:17:41;40.30;;;26.00;;
34035;SDS011;63481;52.588;22.472;2023-03-21T05:18:34;40.90;;;25.50;;
34035;SDS011;63481;52.588;22.472;2023-03-21T05:19:34;40.80;;;25.70;;
34035;SDS011;63481;52.588;22.472;2023-03-21T05:20:27;40.00;;;25.60;;
34035;SDS011;63481;52.588;22.472;2023-03-21T05:21:20;44.00;;;27.40;;
34035;SDS011;63481;52.588;22.472;2023-03-21T05:22:14;38.70;;;24.40;;
34035;SDS011;63481;52.588;22.472;2023-03-21T05:23:10;38.30;;;24.40;;
34035;SDS011;63481;52.588;22.472;2023-03-21T05:24:04;37.10;;;24.70;;
34035;SDS011;63481;52.588;22.472;2023-03-21T05:24:57;34.70;;;23.30;;
34035;SDS011;63481;52.588;22.472;2023-03-21T05:26:10;37.10;;;23.90;;
34035;SDS011;63481;52.588;22.472;2023-03-21T05:28:08;34.10;;;21.20;;
34035;SDS011;63481;52.588;22.472;2023-03-21T05:29:01;33.90;;;22.70;;
34035;SDS011;63481;52.588;22.472;2023-03-21T05:29:54;36.00;;;23.80;;
34035;SDS011;63481;52.588;22.472;2023-03-21T05:30:47;34.70;;;21.80;;
34035;SDS011;63481;52.588;22.472;2023-03-21T05:31:40;35.70;;;22.30;;
34035;SDS011;63481;52.588;22.472;2023-03-21T05:32:35;34.10;;;21.60;;
34035;SDS011;63481;52.588;22.472;2023-03-21T05:33:27;32.80;;;21.30;;
34035;SDS011;63481;52.588;22.472;2023-03-21T05:34:20;34.30;;;21.60;;
34035;SDS011;63481;52.588;22.472;2023-03-21T05:35:14;31.30;;;20.80;;
34035;SDS011;63481;52.588;22.472;2023-03-21T05:36:08;31.20;;;21.00;;
34035;SDS011;63481;52.588;22.472;2023-03-21T05:37:01;31.70;;;21.70;;
34035;SDS011;63481;52.588;22.472;2023-03-21T05:38:03;33.70;;;21.20;;
34035;SDS011;63481;52.588;22.472;2023-03-21T05:38:58;30.80;;;20.50;;
34035;SDS011;63481;52.588;22.472;2023-03-21T05:39:51;33.00;;;21.60;;
34035;SDS011;63481;52.588;22.472;2023-03-21T05:40:50;31.70;;;21.70;;
34035;SDS011;63481;52.588;22.472;2023-03-21T05:41:43;34.20;;;22.60;;
34035;SDS011;63481;52.588;22.472;2023-03-21T05:42:36;29.70;;;20.30;;
34035;SDS011;63481;52.588;22.472;2023-03-21T05:43:36;34.10;;;21.60;;
34035;SDS011;63481;52.588;22.472;2023-03-21T05:44:28;32.90;;;21.90;;
34035;SDS011;63481;52.588;22.472;2023-03-21T05:45:21;33.90;;;22.70;;
34035;SDS011;63481;52.588;22.472;2023-03-21T05:46:14;34.80;;;22.00;;
34035;SDS011;63481;52.588;22.472;2023-03-21T05:47:07;33.00;;;21.60;;
34035;SDS011;63481;52.588;22.472;2023-03-21T05:48:09;32.80;;;22.20;;
34035;SDS011;63481;52.588;22.472;2023-03-21T05:49:13;32.50;;;21.30;;
34035;SDS011;63481;52.588;22.472;2023-03-21T05:50:07;31.20;;;21.50;;
34035;SDS011;63481;52.588;22.472;2023-03-21T05:51:02;31.50;;;21.90;;
34035;SDS011;63481;52.588;22.472;2023-03-21T05:51:56;31.60;;;22.20;;
34035;SDS011;63481;52.588;22.472;2023-03-21T05:52:49;28.60;;;19.90;;
34035;SDS011;63481;52.588;22.472;2023-03-21T05:53:42;30.50;;;21.60;;
34035;SDS011;63481;52.588;22.472;2023-03-21T05:54:34;32.30;;;21.20;;
34035;SDS011;63481;52.588;22.472;2023-03-21T05:55:27;31.00;;;21.40;;
34035;SDS011;63481;52.588;22.472;2023-03-21T05:56:21;31.30;;;20.50;;
34035;SDS011;63481;52.588;22.472;2023-03-21T05:57:23;29.50;;;20.70;;
34035;SDS011;63481;52.588;22.472;2023-03-21T05:58:22;30.10;;;20.70;;
34035;SDS011;63481;52.588;22.472;2023-03-21T05:59:15;27.70;;;19.50;;
34035;SDS011;63481;52.588;22.472;2023-03-21T06:00:08;27.90;;;19.90;;
34035;SDS011;63481;52.588;22.472;2023-03-21T06:01:15;29.70;;;20.70;;
34035;SDS011;63481;52.588;22.472;2023-03-21T06:02:11;28.70;;;19.00;;
34035;SDS011;63481;52.588;22.472;2023-03-21T06:03:04;31.60;;;20.60;;
34035;SDS011;63481;52.588;22.472;2023-03-21T06:04:17;29.80;;;20.20;;
34035;SDS011;63481;52.588;22.472;2023-03-21T06:05:10;29.80;;;20.20;;